sensor_id;sensor_type;location;lat;lon;timestamp;P1;durP1;ratioP1;P2;durP2;ratioP2
11588;SDS011;5850;51.360;12.362;2023-09-12T00:02:26;10.27;;;8.33;;
11588;SDS011;5850;51.360;12.362;2023-09-12T00:04:55;11.73;;;9.37;;
11588;SDS011;5850;51.360;12.362;2023-09-12T00:07:23;11.33;;;8.47;;
11588;SDS011;5850;51.360;12.362;2023-09-12T00:09:51;9.93;;;8.10;;
11588;SDS011;5850;51.360;12.362;2023-09-12T00:12:21;12.70;;;8.70;;
11588;SDS011;5850;51.360;12.362;2023-09-12T00:14:51;9.43;;;7.87;;
11588;SDS011;5850;51.360;12.362;2023-09-12T00:17:19;11.77;;;8.90;;
11588;SDS011;5850;51.360;12.362;2023-09-12T00:19:49;14.63;;;8.90;;
11588;SDS011;5850;51.360;12.362;2023-09-12T00:22:17;12.07;;;8.33;;
11588;SDS011;5850;51.360;12.362;2023-09-12T00:24:45;11.83;;;8.63;;
11588;SDS011;5850;51.360;12.362;2023-09-12T00:27:13;14.30;;;8.50;;
11588;SDS011;5850;51.360;12.362;2023-09-12T00:29:41;10.37;;;9.00;;
11588;SDS011;5850;51.360;12.362;2023-09-12T00:32:10;13.63;;;9.47;;
11588;SDS011;5850;51.360;12.362;2023-09-12T00:34:38;11.83;;;9.43;;
11588;SDS011;5850;51.360;12.362;2023-09-12T00:37:06;14.27;;;8.97;;
11588;SDS011;5850;51.360;12.362;2023-09-12T00:39:34;11.57;;;8.83;;
11588;SDS011;5850;51.360;12.362;2023-09-12T00:42:03;10.23;;;9.17;;
11588;SDS011;5850;51.360;12.362;2023-09-12T00:44:33;12.40;;;8.70;;
11588;SDS011;5850;51.360;12.362;2023-09-12T00:47:02;12.40;;;9.40;;
11588;SDS011;5850;51.360;12.362;2023-09-12T00:49:30;11.20;;;9.20;;
11588;SDS011;5850;51.360;12.362;2023-09-12T00:51:59;11.53;;;9.27;;
11588;SDS011;5850;51.360;12.362;2023-09-12T00:54:29;12.97;;;9.33;;
11588;SDS011;5850;51.360;12.362;2023-09-12T00:56:58;11.27;;;9.43;;
11588;SDS011;5850;51.360;12.362;2023-09-12T00:59:27;13.83;;;9.30;;
11588;SDS011;5850;51.360;12.362;2023-09-12T01:01:55;10.60;;;8.40;;
11588;SDS011;5850;51.360;12.362;2023-09-12T01:04:23;11.10;;;8.67;;
11588;SDS011;5850;51.360;12.362;2023-09-12T01:07:02;8.77;;;7.87;;
11588;SDS011;5850;51.360;12.362;2023-09-12T01:09:31;10.13;;;8.93;;
11588;SDS011;5850;51.360;12.362;2023-09-12T01:12:00;12.37;;;8.67;;
11588;SDS011;5850;51.360;12.362;2023-09-12T01:14:29;10.50;;;8.83;;
11588;SDS011;5850;51.360;12.362;2023-09-12T01:16:58;9.23;;;7.93;;
11588;SDS011;5850;51.360;12.362;2023-09-12T01:19:27;9.30;;;8.40;;
11588;SDS011;5850;51.360;12.362;2023-09-12T01:25:07;10.07;;;7.67;;
11588;SDS011;5850;51.360;12.362;2023-09-12T01:27:51;12.03;;;8.70;;
11588;SDS011;5850;51.360;12.362;2023-09-12T01:30:21;11.10;;;8.77;;
11588;SDS011;5850;51.360;12.362;2023-09-12T01:32:49;9.60;;;7.23;;
11588;SDS011;5850;51.360;12.362;2023-09-12T01:35:19;10.43;;;8.20;;
11588;SDS011;5850;51.360;12.362;2023-09-12T01:37:47;9.93;;;7.53;;
11588;SDS011;5850;51.360;12.362;2023-09-12T01:40:15;10.80;;;7.83;;
11588;SDS011;5850;51.360;12.362;2023-09-12T01:42:44;10.77;;;8.70;;
11588;SDS011;5850;51.360;12.362;2023-09-12T01:45:13;9.90;;;8.07;;
11588;SDS011;5850;51.360;12.362;2023-09-12T01:47:49;9.97;;;8.20;;
11588;SDS011;5850;51.360;12.362;2023-09-12T01:50:17;8.93;;;7.17;;
11588;SDS011;5850;51.360;12.362;2023-09-12T01:52:47;10.60;;;7.90;;
11588;SDS011;5850;51.360;12.362;2023-09-12T01:55:15;8.43;;;7.53;;
11588;SDS011;5850;51.360;12.362;2023-09-12T01:57:45;9.83;;;7.97;;
11588;SDS011;5850;51.360;12.362;2023-09-12T02:00:13;11.30;;;7.77;;
11588;SDS011;5850;51.360;12.362;2023-09-12T02:02:41;8.63;;;7.47;;
11588;SDS011;5850;51.360;12.362;2023-09-12T02:05:19;10.23;;;8.00;;
11588;SDS011;5850;51.360;12.362;2023-09-12T02:07:48;9.10;;;8.03;;
11588;SDS011;5850;51.360;12.362;2023-09-12T02:10:17;11.70;;;8.20;;
11588;SDS011;5850;51.360;12.362;2023-09-12T02:12:45;11.00;;;8.43;;
11588;SDS011;5850;51.360;12.362;2023-09-12T02:15:13;10.67;;;7.63;;
11588;SDS011;5850;51.360;12.362;2023-09-12T02:17:41;9.30;;;8.30;;
11588;SDS011;5850;51.360;12.362;2023-09-12T02:20:10;11.90;;;7.60;;
11588;SDS011;5850;51.360;12.362;2023-09-12T02:22:38;9.80;;;8.40;;
11588;SDS011;5850;51.360;12.362;2023-09-12T02:25:07;9.17;;;8.10;;
11588;SDS011;5850;51.360;12.362;2023-09-12T02:27:35;9.33;;;7.60;;
11588;SDS011;5850;51.360;12.362;2023-09-12T02:30:03;10.83;;;7.53;;
11588;SDS011;5850;51.360;12.362;2023-09-12T02:32:32;9.97;;;7.30;;
11588;SDS011;5850;51.360;12.362;2023-09-12T02:35:00;11.00;;;8.23;;
11588;SDS011;5850;51.360;12.362;2023-09-12T02:37:29;9.03;;;7.60;;
11588;SDS011;5850;51.360;12.362;2023-09-12T02:39:57;11.20;;;8.40;;
11588;SDS011;5850;51.360;12.362;2023-09-12T02:42:25;10.23;;;8.17;;
11588;SDS011;5850;51.360;12.362;2023-09-12T02:44:53;10.57;;;8.67;;
11588;SDS011;5850;51.360;12.362;2023-09-12T02:47:21;12.03;;;8.30;;
11588;SDS011;5850;51.360;12.362;2023-09-12T02:49:49;10.33;;;8.53;;
11588;SDS011;5850;51.360;12.362;2023-09-12T02:52:17;10.70;;;8.20;;
11588;SDS011;5850;51.360;12.362;2023-09-12T02:54:46;8.77;;;7.87;;
11588;SDS011;5850;51.360;12.362;2023-09-12T02:57:14;12.73;;;8.03;;
11588;SDS011;5850;51.360;12.362;2023-09-12T02:59:43;9.07;;;7.73;;
11588;SDS011;5850;51.360;12.362;2023-09-12T03:02:11;8.23;;;7.40;;
11588;SDS011;5850;51.360;12.362;2023-09-12T03:04:39;10.70;;;8.20;;
11588;SDS011;5850;51.360;12.362;2023-09-12T03:07:07;9.47;;;8.30;;
11588;SDS011;5850;51.360;12.362;2023-09-12T03:09:35;10.03;;;8.43;;
11588;SDS011;5850;51.360;12.362;2023-09-12T03:12:04;11.53;;;8.43;;
11588;SDS011;5850;51.360;12.362;2023-09-12T03:14:33;13.73;;;8.90;;
11588;SDS011;5850;51.360;12.362;2023-09-12T03:17:01;11.40;;;7.83;;
11588;SDS011;5850;51.360;12.362;2023-09-12T03:19:31;11.73;;;7.90;;
11588;SDS011;5850;51.360;12.362;2023-09-12T03:21:59;10.20;;;8.70;;
11588;SDS011;5850;51.360;12.362;2023-09-12T03:24:27;15.10;;;8.57;;
11588;SDS011;5850;51.360;12.362;2023-09-12T03:26:55;11.47;;;8.20;;
11588;SDS011;5850;51.360;12.362;2023-09-12T03:29:23;11.10;;;8.00;;
11588;SDS011;5850;51.360;12.362;2023-09-12T03:31:52;11.03;;;8.93;;
11588;SDS011;5850;51.360;12.362;2023-09-12T03:34:20;12.93;;;8.83;;
11588;SDS011;5850;51.360;12.362;2023-09-12T03:36:48;10.63;;;8.30;;
11588;SDS011;5850;51.360;12.362;2023-09-12T03:39:16;9.93;;;8.57;;
11588;SDS011;5850;51.360;12.362;2023-09-12T03:41:44;9.73;;;8.73;;
11588;SDS011;5850;51.360;12.362;2023-09-12T03:44:12;10.03;;;8.70;;
11588;SDS011;5850;51.360;12.362;2023-09-12T03:46:40;9.53;;;8.53;;
11588;SDS011;5850;51.360;12.362;2023-09-12T03:49:08;12.43;;;9.47;;
11588;SDS011;5850;51.360;12.362;2023-09-12T03:51:37;9.00;;;7.97;;
11588;SDS011;5850;51.360;12.362;2023-09-12T03:54:05;9.50;;;7.80;;
11588;SDS011;5850;51.360;12.362;2023-09-12T03:56:33;10.03;;;7.97;;
11588;SDS011;5850;51.360;12.362;2023-09-12T03:59:01;10.07;;;8.03;;
11588;SDS011;5850;51.360;12.362;2023-09-12T04:01:29;11.60;;;8.80;;
11588;SDS011;5850;51.360;12.362;2023-09-12T04:03:58;9.47;;;8.43;;
11588;SDS011;5850;51.360;12.362;2023-09-12T04:06:29;12.03;;;7.70;;
11588;SDS011;5850;51.360;12.362;2023-09-12T04:08:57;10.73;;;8.70;;
11588;SDS011;5850;51.360;12.362;2023-09-12T04:11:26;9.57;;;8.53;;
11588;SDS011;5850;51.360;12.362;2023-09-12T04:14:12;9.17;;;8.27;;
11588;SDS011;5850;51.360;12.362;2023-09-12T04:16:41;8.90;;;7.97;;
11588;SDS011;5850;51.360;12.362;2023-09-12T04:19:09;10.63;;;8.63;;
11588;SDS011;5850;51.360;12.362;2023-09-12T04:21:38;9.93;;;8.10;;
11588;SDS011;5850;51.360;12.362;2023-09-12T04:24:06;10.07;;;8.90;;
11588;SDS011;5850;51.360;12.362;2023-09-12T04:26:34;11.30;;;8.83;;
11588;SDS011;5850;51.360;12.362;2023-09-12T04:29:02;10.70;;;8.87;;
11588;SDS011;5850;51.360;12.362;2023-09-12T04:31:31;10.60;;;8.60;;
11588;SDS011;5850;51.360;12.362;2023-09-12T04:33:59;10.10;;;8.57;;
11588;SDS011;5850;51.360;12.362;2023-09-12T04:36:27;12.60;;;9.47;;
11588;SDS011;5850;51.360;12.362;2023-09-12T04:38:55;12.47;;;9.73;;
11588;SDS011;5850;51.360;12.362;2023-09-12T04:41:24;10.20;;;8.67;;
11588;SDS011;5850;51.360;12.362;2023-09-12T04:43:52;10.73;;;8.93;;
11588;SDS011;5850;51.360;12.362;2023-09-12T04:46:20;10.97;;;8.93;;
11588;SDS011;5850;51.360;12.362;2023-09-12T04:48:48;9.80;;;8.10;;
11588;SDS011;5850;51.360;12.362;2023-09-12T04:51:16;11.70;;;8.70;;
11588;SDS011;5850;51.360;12.362;2023-09-12T04:53:44;11.60;;;9.00;;
11588;SDS011;5850;51.360;12.362;2023-09-12T04:56:17;11.57;;;8.27;;
11588;SDS011;5850;51.360;12.362;2023-09-12T04:58:45;9.10;;;8.20;;
11588;SDS011;5850;51.360;12.362;2023-09-12T05:01:14;9.57;;;8.57;;
11588;SDS011;5850;51.360;12.362;2023-09-12T05:03:43;8.57;;;7.77;;
11588;SDS011;5850;51.360;12.362;2023-09-12T05:06:12;9.43;;;8.20;;
11588;SDS011;5850;51.360;12.362;2023-09-12T05:08:40;10.77;;;7.77;;
11588;SDS011;5850;51.360;12.362;2023-09-12T05:11:09;10.17;;;8.33;;
11588;SDS011;5850;51.360;12.362;2023-09-12T05:13:37;10.83;;;8.27;;
11588;SDS011;5850;51.360;12.362;2023-09-12T05:16:05;13.40;;;8.40;;
11588;SDS011;5850;51.360;12.362;2023-09-12T05:18:33;9.33;;;8.37;;
11588;SDS011;5850;51.360;12.362;2023-09-12T05:21:01;10.73;;;8.87;;
11588;SDS011;5850;51.360;12.362;2023-09-12T05:23:29;11.10;;;8.70;;
11588;SDS011;5850;51.360;12.362;2023-09-12T05:25:58;9.93;;;8.27;;
11588;SDS011;5850;51.360;12.362;2023-09-12T05:28:27;10.27;;;8.00;;
11588;SDS011;5850;51.360;12.362;2023-09-12T05:30:55;10.97;;;8.57;;
11588;SDS011;5850;51.360;12.362;2023-09-12T05:33:24;10.40;;;9.00;;
11588;SDS011;5850;51.360;12.362;2023-09-12T05:35:52;10.17;;;8.57;;
11588;SDS011;5850;51.360;12.362;2023-09-12T05:38:20;14.13;;;8.33;;
11588;SDS011;5850;51.360;12.362;2023-09-12T05:40:49;8.47;;;7.63;;
11588;SDS011;5850;51.360;12.362;2023-09-12T05:43:17;9.30;;;8.40;;
11588;SDS011;5850;51.360;12.362;2023-09-12T05:45:45;9.17;;;7.73;;
11588;SDS011;5850;51.360;12.362;2023-09-12T05:48:13;9.30;;;8.10;;
11588;SDS011;5850;51.360;12.362;2023-09-12T05:50:41;9.80;;;8.47;;
11588;SDS011;5850;51.360;12.362;2023-09-12T05:53:10;10.67;;;8.50;;
11588;SDS011;5850;51.360;12.362;2023-09-12T05:55:38;10.23;;;7.50;;
11588;SDS011;5850;51.360;12.362;2023-09-12T05:58:06;8.27;;;7.37;;
11588;SDS011;5850;51.360;12.362;2023-09-12T06:00:35;10.07;;;7.50;;
11588;SDS011;5850;51.360;12.362;2023-09-12T06:03:03;8.87;;;7.77;;
11588;SDS011;5850;51.360;12.362;2023-09-12T06:05:32;9.90;;;7.80;;
11588;SDS011;5850;51.360;12.362;2023-09-12T06:08:00;11.60;;;8.07;;
11588;SDS011;5850;51.360;12.362;2023-09-12T06:10:30;9.20;;;8.10;;
11588;SDS011;5850;51.360;12.362;2023-09-12T06:12:58;10.07;;;7.90;;
11588;SDS011;5850;51.360;12.362;2023-09-12T06:15:26;10.83;;;7.80;;
11588;SDS011;5850;51.360;12.362;2023-09-12T06:17:54;8.13;;;7.00;;
11588;SDS011;5850;51.360;12.362;2023-09-12T06:20:23;11.20;;;7.47;;
11588;SDS011;5850;51.360;12.362;2023-09-12T06:22:51;10.07;;;7.27;;
11588;SDS011;5850;51.360;12.362;2023-09-12T06:25:19;7.53;;;6.73;;
11588;SDS011;5850;51.360;12.362;2023-09-12T06:27:47;8.63;;;7.83;;
11588;SDS011;5850;51.360;12.362;2023-09-12T06:30:16;8.80;;;7.67;;
11588;SDS011;5850;51.360;12.362;2023-09-12T06:32:44;8.87;;;6.80;;
11588;SDS011;5850;51.360;12.362;2023-09-12T06:35:13;10.57;;;7.77;;
11588;SDS011;5850;51.360;12.362;2023-09-12T06:37:41;14.10;;;8.00;;
11588;SDS011;5850;51.360;12.362;2023-09-12T06:40:09;10.93;;;7.80;;
11588;SDS011;5850;51.360;12.362;2023-09-12T06:42:37;9.97;;;7.57;;
11588;SDS011;5850;51.360;12.362;2023-09-12T06:45:05;10.33;;;7.93;;
11588;SDS011;5850;51.360;12.362;2023-09-12T06:47:35;10.37;;;7.57;;
11588;SDS011;5850;51.360;12.362;2023-09-12T06:50:02;10.53;;;8.03;;
11588;SDS011;5850;51.360;12.362;2023-09-12T06:52:36;11.00;;;7.37;;
11588;SDS011;5850;51.360;12.362;2023-09-12T06:55:05;11.00;;;7.43;;
11588;SDS011;5850;51.360;12.362;2023-09-12T06:57:33;25.10;;;19.60;;
11588;SDS011;5850;51.360;12.362;2023-09-12T07:00:01;23.13;;;18.10;;
11588;SDS011;5850;51.360;12.362;2023-09-12T07:02:32;19.67;;;13.83;;
11588;SDS011;5850;51.360;12.362;2023-09-12T07:05:00;14.60;;;11.17;;
11588;SDS011;5850;51.360;12.362;2023-09-12T07:07:30;12.47;;;9.03;;
11588;SDS011;5850;51.360;12.362;2023-09-12T07:09:58;12.57;;;9.10;;
11588;SDS011;5850;51.360;12.362;2023-09-12T07:12:46;11.30;;;9.30;;
11588;SDS011;5850;51.360;12.362;2023-09-12T07:15:13;10.60;;;8.40;;
11588;SDS011;5850;51.360;12.362;2023-09-12T07:17:42;8.27;;;7.47;;
11588;SDS011;5850;51.360;12.362;2023-09-12T07:20:11;10.93;;;7.20;;
11588;SDS011;5850;51.360;12.362;2023-09-12T07:22:39;13.30;;;7.70;;
11588;SDS011;5850;51.360;12.362;2023-09-12T07:25:07;13.73;;;7.33;;
11588;SDS011;5850;51.360;12.362;2023-09-12T07:27:38;9.93;;;7.33;;
11588;SDS011;5850;51.360;12.362;2023-09-12T07:30:06;12.50;;;7.27;;
11588;SDS011;5850;51.360;12.362;2023-09-12T07:32:35;10.20;;;7.03;;
11588;SDS011;5850;51.360;12.362;2023-09-12T07:35:03;13.83;;;8.03;;
11588;SDS011;5850;51.360;12.362;2023-09-12T07:37:31;10.17;;;6.80;;
11588;SDS011;5850;51.360;12.362;2023-09-12T07:40:00;14.27;;;7.47;;
11588;SDS011;5850;51.360;12.362;2023-09-12T07:42:32;15.97;;;7.30;;
11588;SDS011;5850;51.360;12.362;2023-09-12T07:45:01;14.50;;;7.33;;
11588;SDS011;5850;51.360;12.362;2023-09-12T07:47:31;12.50;;;7.27;;
11588;SDS011;5850;51.360;12.362;2023-09-12T07:49:59;10.43;;;7.27;;
11588;SDS011;5850;51.360;12.362;2023-09-12T07:52:28;16.90;;;7.50;;
11588;SDS011;5850;51.360;12.362;2023-09-12T07:54:59;13.43;;;7.07;;
11588;SDS011;5850;51.360;12.362;2023-09-12T07:57:28;13.77;;;7.23;;
11588;SDS011;5850;51.360;12.362;2023-09-12T07:59:56;10.73;;;7.27;;
11588;SDS011;5850;51.360;12.362;2023-09-12T08:02:25;9.77;;;7.20;;
11588;SDS011;5850;51.360;12.362;2023-09-12T08:04:53;17.67;;;7.90;;
11588;SDS011;5850;51.360;12.362;2023-09-12T08:07:21;14.17;;;8.90;;
11588;SDS011;5850;51.360;12.362;2023-09-12T08:09:53;12.67;;;10.47;;
11588;SDS011;5850;51.360;12.362;2023-09-12T08:12:24;10.50;;;8.10;;
11588;SDS011;5850;51.360;12.362;2023-09-12T08:14:53;14.03;;;8.80;;
11588;SDS011;5850;51.360;12.362;2023-09-12T08:17:22;15.87;;;9.97;;
11588;SDS011;5850;51.360;12.362;2023-09-12T08:19:50;15.90;;;8.57;;
11588;SDS011;5850;51.360;12.362;2023-09-12T08:22:18;14.87;;;10.07;;
11588;SDS011;5850;51.360;12.362;2023-09-12T08:24:46;14.33;;;8.90;;
11588;SDS011;5850;51.360;12.362;2023-09-12T08:27:14;15.03;;;8.30;;
11588;SDS011;5850;51.360;12.362;2023-09-12T08:29:43;13.90;;;8.07;;
11588;SDS011;5850;51.360;12.362;2023-09-12T08:32:13;13.07;;;8.20;;
11588;SDS011;5850;51.360;12.362;2023-09-12T08:34:41;15.70;;;9.80;;
11588;SDS011;5850;51.360;12.362;2023-09-12T08:37:09;12.70;;;7.97;;
11588;SDS011;5850;51.360;12.362;2023-09-12T08:39:41;17.07;;;9.17;;
11588;SDS011;5850;51.360;12.362;2023-09-12T08:42:13;13.97;;;9.00;;
11588;SDS011;5850;51.360;12.362;2023-09-12T08:44:43;16.70;;;11.40;;
11588;SDS011;5850;51.360;12.362;2023-09-12T08:47:12;19.47;;;12.50;;
11588;SDS011;5850;51.360;12.362;2023-09-12T08:49:41;22.30;;;11.80;;
11588;SDS011;5850;51.360;12.362;2023-09-12T08:52:09;16.30;;;9.80;;
11588;SDS011;5850;51.360;12.362;2023-09-12T08:54:38;13.97;;;8.93;;
11588;SDS011;5850;51.360;12.362;2023-09-12T08:57:06;16.03;;;9.87;;
11588;SDS011;5850;51.360;12.362;2023-09-12T08:59:34;23.93;;;11.37;;
11588;SDS011;5850;51.360;12.362;2023-09-12T09:02:03;15.93;;;10.80;;
11588;SDS011;5850;51.360;12.362;2023-09-12T09:04:34;18.60;;;11.67;;
11588;SDS011;5850;51.360;12.362;2023-09-12T09:07:03;13.47;;;9.33;;
11588;SDS011;5850;51.360;12.362;2023-09-12T09:09:31;13.33;;;9.80;;
11588;SDS011;5850;51.360;12.362;2023-09-12T09:12:00;13.63;;;9.87;;
11588;SDS011;5850;51.360;12.362;2023-09-12T09:14:29;18.20;;;10.77;;
11588;SDS011;5850;51.360;12.362;2023-09-12T09:16:57;19.57;;;10.03;;
11588;SDS011;5850;51.360;12.362;2023-09-12T09:19:39;15.53;;;11.83;;
11588;SDS011;5850;51.360;12.362;2023-09-12T09:22:09;19.00;;;11.17;;
11588;SDS011;5850;51.360;12.362;2023-09-12T09:24:37;19.37;;;11.50;;
11588;SDS011;5850;51.360;12.362;2023-09-12T09:27:05;17.20;;;12.03;;
11588;SDS011;5850;51.360;12.362;2023-09-12T09:29:45;13.47;;;10.67;;
11588;SDS011;5850;51.360;12.362;2023-09-12T09:32:18;16.83;;;13.93;;
11588;SDS011;5850;51.360;12.362;2023-09-12T09:34:48;18.83;;;11.20;;
11588;SDS011;5850;51.360;12.362;2023-09-12T09:37:16;15.30;;;10.37;;
11588;SDS011;5850;51.360;12.362;2023-09-12T09:39:46;29.27;;;15.30;;
11588;SDS011;5850;51.360;12.362;2023-09-12T09:42:18;21.13;;;13.50;;
11588;SDS011;5850;51.360;12.362;2023-09-12T09:44:47;20.10;;;13.13;;
11588;SDS011;5850;51.360;12.362;2023-09-12T09:47:16;18.87;;;12.90;;
11588;SDS011;5850;51.360;12.362;2023-09-12T09:49:46;20.53;;;11.73;;
11588;SDS011;5850;51.360;12.362;2023-09-12T09:52:13;15.33;;;11.00;;
11588;SDS011;5850;51.360;12.362;2023-09-12T09:54:45;20.17;;;14.73;;
11588;SDS011;5850;51.360;12.362;2023-09-12T09:57:12;16.67;;;13.90;;
11588;SDS011;5850;51.360;12.362;2023-09-12T09:59:41;18.13;;;12.20;;
11588;SDS011;5850;51.360;12.362;2023-09-12T10:02:10;17.53;;;12.37;;
11588;SDS011;5850;51.360;12.362;2023-09-12T10:04:48;15.93;;;12.23;;
11588;SDS011;5850;51.360;12.362;2023-09-12T10:07:25;20.50;;;11.67;;
11588;SDS011;5850;51.360;12.362;2023-09-12T10:09:55;15.83;;;12.47;;
11588;SDS011;5850;51.360;12.362;2023-09-12T10:12:24;20.87;;;11.57;;
11588;SDS011;5850;51.360;12.362;2023-09-12T10:14:54;17.87;;;12.13;;
11588;SDS011;5850;51.360;12.362;2023-09-12T10:17:23;16.40;;;11.57;;
11588;SDS011;5850;51.360;12.362;2023-09-12T10:20:03;15.43;;;11.77;;
11588;SDS011;5850;51.360;12.362;2023-09-12T10:22:56;18.93;;;11.00;;
11588;SDS011;5850;51.360;12.362;2023-09-12T10:25:37;15.70;;;11.20;;
11588;SDS011;5850;51.360;12.362;2023-09-12T10:28:06;16.33;;;10.17;;
11588;SDS011;5850;51.360;12.362;2023-09-12T10:30:34;16.37;;;10.57;;
11588;SDS011;5850;51.360;12.362;2023-09-12T10:33:03;14.00;;;9.90;;
11588;SDS011;5850;51.360;12.362;2023-09-12T10:35:32;18.43;;;11.47;;
11588;SDS011;5850;51.360;12.362;2023-09-12T10:38:02;20.07;;;11.00;;
11588;SDS011;5850;51.360;12.362;2023-09-12T10:40:32;15.90;;;10.77;;
11588;SDS011;5850;51.360;12.362;2023-09-12T10:43:09;19.30;;;12.60;;
11588;SDS011;5850;51.360;12.362;2023-09-12T10:45:39;18.80;;;12.40;;
11588;SDS011;5850;51.360;12.362;2023-09-12T10:48:09;16.70;;;10.93;;
11588;SDS011;5850;51.360;12.362;2023-09-12T10:50:37;20.53;;;9.87;;
11588;SDS011;5850;51.360;12.362;2023-09-12T10:53:13;20.60;;;11.60;;
11588;SDS011;5850;51.360;12.362;2023-09-12T10:55:42;22.00;;;10.30;;
11588;SDS011;5850;51.360;12.362;2023-09-12T11:01:31;25.27;;;10.67;;
11588;SDS011;5850;51.360;12.362;2023-09-12T11:06:46;19.43;;;10.87;;
11588;SDS011;5850;51.360;12.362;2023-09-12T11:09:19;16.23;;;10.17;;
11588;SDS011;5850;51.360;12.362;2023-09-12T11:11:54;16.07;;;10.10;;
11588;SDS011;5850;51.360;12.362;2023-09-12T11:14:23;20.83;;;10.80;;
11588;SDS011;5850;51.360;12.362;2023-09-12T11:19:46;14.23;;;9.93;;
11588;SDS011;5850;51.360;12.362;2023-09-12T11:22:25;18.80;;;10.57;;
11588;SDS011;5850;51.360;12.362;2023-09-12T11:24:55;15.20;;;10.10;;
11588;SDS011;5850;51.360;12.362;2023-09-12T11:27:24;16.77;;;10.30;;
11588;SDS011;5850;51.360;12.362;2023-09-12T11:30:04;18.17;;;10.00;;
11588;SDS011;5850;51.360;12.362;2023-09-12T11:32:35;17.53;;;9.77;;
11588;SDS011;5850;51.360;12.362;2023-09-12T11:35:07;20.30;;;10.10;;
11588;SDS011;5850;51.360;12.362;2023-09-12T11:37:37;19.27;;;10.60;;
11588;SDS011;5850;51.360;12.362;2023-09-12T11:40:41;15.23;;;8.77;;
11588;SDS011;5850;51.360;12.362;2023-09-12T11:43:00;16.23;;;9.97;;
11588;SDS011;5850;51.360;12.362;2023-09-12T11:45:28;12.53;;;9.87;;
11588;SDS011;5850;51.360;12.362;2023-09-12T11:47:57;17.67;;;9.83;;
11588;SDS011;5850;51.360;12.362;2023-09-12T11:50:29;14.37;;;9.13;;
11588;SDS011;5850;51.360;12.362;2023-09-12T11:53:02;13.60;;;9.37;;
11588;SDS011;5850;51.360;12.362;2023-09-12T11:55:37;14.63;;;9.33;;
11588;SDS011;5850;51.360;12.362;2023-09-12T11:58:11;18.20;;;9.50;;
11588;SDS011;5850;51.360;12.362;2023-09-12T12:00:43;16.00;;;9.57;;
11588;SDS011;5850;51.360;12.362;2023-09-12T12:03:22;13.20;;;8.70;;
11588;SDS011;5850;51.360;12.362;2023-09-12T12:05:52;10.43;;;8.40;;
11588;SDS011;5850;51.360;12.362;2023-09-12T12:08:22;16.20;;;9.13;;
11588;SDS011;5850;51.360;12.362;2023-09-12T12:10:57;19.00;;;8.97;;
11588;SDS011;5850;51.360;12.362;2023-09-12T12:13:26;13.27;;;8.23;;
11588;SDS011;5850;51.360;12.362;2023-09-12T12:15:55;12.87;;;8.23;;
11588;SDS011;5850;51.360;12.362;2023-09-12T12:18:24;15.70;;;8.13;;
11588;SDS011;5850;51.360;12.362;2023-09-12T12:20:52;14.23;;;8.03;;
11588;SDS011;5850;51.360;12.362;2023-09-12T12:23:45;11.63;;;8.23;;
11588;SDS011;5850;51.360;12.362;2023-09-12T12:26:13;14.33;;;8.00;;
11588;SDS011;5850;51.360;12.362;2023-09-12T12:28:41;12.33;;;7.67;;
11588;SDS011;5850;51.360;12.362;2023-09-12T12:31:09;11.40;;;8.10;;
11588;SDS011;5850;51.360;12.362;2023-09-12T12:33:37;15.07;;;8.43;;
11588;SDS011;5850;51.360;12.362;2023-09-12T12:36:25;15.50;;;9.63;;
11588;SDS011;5850;51.360;12.362;2023-09-12T12:38:54;13.70;;;7.93;;
11588;SDS011;5850;51.360;12.362;2023-09-12T12:41:24;14.73;;;7.93;;
11588;SDS011;5850;51.360;12.362;2023-09-12T12:44:11;13.77;;;7.80;;
11588;SDS011;5850;51.360;12.362;2023-09-12T12:46:50;18.40;;;7.40;;
11588;SDS011;5850;51.360;12.362;2023-09-12T12:49:19;16.27;;;7.50;;
11588;SDS011;5850;51.360;12.362;2023-09-12T12:51:49;13.20;;;8.90;;
11588;SDS011;5850;51.360;12.362;2023-09-12T12:54:21;10.33;;;7.20;;
11588;SDS011;5850;51.360;12.362;2023-09-12T12:56:50;12.10;;;7.27;;
11588;SDS011;5850;51.360;12.362;2023-09-12T12:59:19;14.47;;;7.40;;
11588;SDS011;5850;51.360;12.362;2023-09-12T13:01:47;23.13;;;7.72;;
11588;SDS011;5850;51.360;12.362;2023-09-12T13:04:18;13.00;;;7.50;;
11588;SDS011;5850;51.360;12.362;2023-09-12T13:06:46;8.83;;;7.10;;
11588;SDS011;5850;51.360;12.362;2023-09-12T13:09:14;17.40;;;7.83;;
11588;SDS011;5850;51.360;12.362;2023-09-12T13:11:43;16.03;;;6.07;;
11588;SDS011;5850;51.360;12.362;2023-09-12T13:14:11;9.67;;;6.50;;
11588;SDS011;5850;51.360;12.362;2023-09-12T13:16:39;8.00;;;6.23;;
11588;SDS011;5850;51.360;12.362;2023-09-12T13:19:08;13.73;;;6.20;;
11588;SDS011;5850;51.360;12.362;2023-09-12T13:21:37;11.00;;;6.20;;
11588;SDS011;5850;51.360;12.362;2023-09-12T13:24:05;11.60;;;6.83;;
11588;SDS011;5850;51.360;12.362;2023-09-12T13:26:33;14.40;;;6.90;;
11588;SDS011;5850;51.360;12.362;2023-09-12T13:29:01;16.20;;;6.03;;
11588;SDS011;5850;51.360;12.362;2023-09-12T13:31:29;17.03;;;7.27;;
11588;SDS011;5850;51.360;12.362;2023-09-12T13:33:58;12.13;;;7.37;;
11588;SDS011;5850;51.360;12.362;2023-09-12T13:36:26;10.27;;;6.90;;
11588;SDS011;5850;51.360;12.362;2023-09-12T13:38:53;12.60;;;7.40;;
11588;SDS011;5850;51.360;12.362;2023-09-12T13:41:22;10.33;;;7.20;;
11588;SDS011;5850;51.360;12.362;2023-09-12T13:43:52;14.33;;;7.90;;
11588;SDS011;5850;51.360;12.362;2023-09-12T13:46:20;13.03;;;7.17;;
11588;SDS011;5850;51.360;12.362;2023-09-12T13:48:48;11.60;;;7.37;;
11588;SDS011;5850;51.360;12.362;2023-09-12T13:51:16;16.57;;;7.00;;
11588;SDS011;5850;51.360;12.362;2023-09-12T13:53:44;10.63;;;6.53;;
11588;SDS011;5850;51.360;12.362;2023-09-12T13:56:12;14.97;;;6.63;;
11588;SDS011;5850;51.360;12.362;2023-09-12T13:58:54;17.70;;;7.60;;
11588;SDS011;5850;51.360;12.362;2023-09-12T14:01:23;12.07;;;7.10;;
11588;SDS011;5850;51.360;12.362;2023-09-12T14:04:00;13.10;;;7.17;;
11588;SDS011;5850;51.360;12.362;2023-09-12T14:06:33;12.23;;;6.80;;
11588;SDS011;5850;51.360;12.362;2023-09-12T14:09:02;8.83;;;6.40;;
11588;SDS011;5850;51.360;12.362;2023-09-12T14:11:31;11.90;;;7.20;;
11588;SDS011;5850;51.360;12.362;2023-09-12T14:14:02;12.13;;;7.03;;
11588;SDS011;5850;51.360;12.362;2023-09-12T14:16:34;15.70;;;7.53;;
11588;SDS011;5850;51.360;12.362;2023-09-12T14:19:02;12.30;;;7.17;;
11588;SDS011;5850;51.360;12.362;2023-09-12T14:21:32;12.00;;;6.87;;
11588;SDS011;5850;51.360;12.362;2023-09-12T14:24:01;14.63;;;7.23;;
11588;SDS011;5850;51.360;12.362;2023-09-12T14:26:31;12.80;;;6.33;;
11588;SDS011;5850;51.360;12.362;2023-09-12T14:28:59;10.57;;;7.03;;
11588;SDS011;5850;51.360;12.362;2023-09-12T14:31:28;17.87;;;7.00;;
11588;SDS011;5850;51.360;12.362;2023-09-12T14:33:56;15.70;;;7.33;;
11588;SDS011;5850;51.360;12.362;2023-09-12T14:36:25;12.20;;;6.63;;
11588;SDS011;5850;51.360;12.362;2023-09-12T14:38:53;9.97;;;6.87;;
11588;SDS011;5850;51.360;12.362;2023-09-12T14:41:21;11.13;;;7.50;;
11588;SDS011;5850;51.360;12.362;2023-09-12T14:43:49;12.13;;;7.73;;
11588;SDS011;5850;51.360;12.362;2023-09-12T14:46:18;13.47;;;7.17;;
11588;SDS011;5850;51.360;12.362;2023-09-12T14:48:46;16.73;;;7.20;;
11588;SDS011;5850;51.360;12.362;2023-09-12T14:51:26;12.33;;;6.50;;
11588;SDS011;5850;51.360;12.362;2023-09-12T14:53:59;13.83;;;7.07;;
11588;SDS011;5850;51.360;12.362;2023-09-12T14:56:27;17.30;;;7.83;;
11588;SDS011;5850;51.360;12.362;2023-09-12T14:58:55;11.77;;;6.97;;
11588;SDS011;5850;51.360;12.362;2023-09-12T15:01:24;14.93;;;7.00;;
11588;SDS011;5850;51.360;12.362;2023-09-12T15:03:52;12.47;;;6.40;;